sensor_id;sensor_type;location;lat;lon;timestamp;temperature;humidity
20091;DHT22;10205;49.678;6.560;2023-07-13T00:01:59;27.90;36.30
20091;DHT22;10205;49.678;6.560;2023-07-13T00:04:27;27.90;36.30
20091;DHT22;10205;49.678;6.560;2023-07-13T00:06:54;27.80;36.40
20091;DHT22;10205;49.678;6.560;2023-07-13T00:09:21;27.80;36.50
20091;DHT22;10205;49.678;6.560;2023-07-13T00:11:51;27.70;36.40
20091;DHT22;10205;49.678;6.560;2023-07-13T00:14:24;27.70;36.60
20091;DHT22;10205;49.678;6.560;2023-07-13T00:16:52;27.60;36.60
20091;DHT22;10205;49.678;6.560;2023-07-13T00:19:20;27.60;36.60
20091;DHT22;10205;49.678;6.560;2023-07-13T00:21:47;27.50;36.70
20091;DHT22;10205;49.678;6.560;2023-07-13T00:24:16;27.50;36.80
20091;DHT22;10205;49.678;6.560;2023-07-13T00:26:49;27.40;36.80
20091;DHT22;10205;49.678;6.560;2023-07-13T00:29:16;27.40;36.90
20091;DHT22;10205;49.678;6.560;2023-07-13T00:31:45;27.30;37.00
20091;DHT22;10205;49.678;6.560;2023-07-13T00:34:13;27.30;37.00
20091;DHT22;10205;49.678;6.560;2023-07-13T00:36:40;27.30;37.10
20091;DHT22;10205;49.678;6.560;2023-07-13T00:39:07;27.20;37.10
20091;DHT22;10205;49.678;6.560;2023-07-13T00:41:34;27.20;37.20
20091;DHT22;10205;49.678;6.560;2023-07-13T00:44:02;27.10;37.20
20091;DHT22;10205;49.678;6.560;2023-07-13T00:46:31;27.10;37.30
20091;DHT22;10205;49.678;6.560;2023-07-13T00:49:03;27.00;37.40
20091;DHT22;10205;49.678;6.560;2023-07-13T00:51:36;27.00;37.50
20091;DHT22;10205;49.678;6.560;2023-07-13T00:54:11;26.90;37.50
20091;DHT22;10205;49.678;6.560;2023-07-13T00:56:41;26.90;37.50
20091;DHT22;10205;49.678;6.560;2023-07-13T00:59:13;26.90;37.60
20091;DHT22;10205;49.678;6.560;2023-07-13T01:01:43;26.80;37.60
20091;DHT22;10205;49.678;6.560;2023-07-13T01:04:11;26.80;37.70
20091;DHT22;10205;49.678;6.560;2023-07-13T01:06:40;26.70;37.70
20091;DHT22;10205;49.678;6.560;2023-07-13T01:09:10;26.70;37.70
20091;DHT22;10205;49.678;6.560;2023-07-13T01:11:38;26.60;37.80
20091;DHT22;10205;49.678;6.560;2023-07-13T01:14:05;26.60;37.80
20091;DHT22;10205;49.678;6.560;2023-07-13T01:16:35;26.60;37.90
20091;DHT22;10205;49.678;6.560;2023-07-13T01:19:08;26.50;38.00
20091;DHT22;10205;49.678;6.560;2023-07-13T01:21:50;26.40;38.00
20091;DHT22;10205;49.678;6.560;2023-07-13T01:24:18;26.40;38.20
20091;DHT22;10205;49.678;6.560;2023-07-13T01:26:45;26.30;38.10
20091;DHT22;10205;49.678;6.560;2023-07-13T01:29:12;26.30;38.30
20091;DHT22;10205;49.678;6.560;2023-07-13T01:31:40;26.20;38.40
20091;DHT22;10205;49.678;6.560;2023-07-13T01:34:07;26.10;38.40
20091;DHT22;10205;49.678;6.560;2023-07-13T01:36:34;26.10;38.50
20091;DHT22;10205;49.678;6.560;2023-07-13T01:39:03;26.00;38.60
20091;DHT22;10205;49.678;6.560;2023-07-13T01:41:30;26.00;38.70
20091;DHT22;10205;49.678;6.560;2023-07-13T01:43:58;25.90;38.70
20091;DHT22;10205;49.678;6.560;2023-07-13T01:46:25;25.90;38.70
20091;DHT22;10205;49.678;6.560;2023-07-13T01:48:52;25.80;38.70
20091;DHT22;10205;49.678;6.560;2023-07-13T01:51:20;25.80;38.70
20091;DHT22;10205;49.678;6.560;2023-07-13T01:53:47;25.80;38.80
20091;DHT22;10205;49.678;6.560;2023-07-13T01:56:16;25.80;38.90
20091;DHT22;10205;49.678;6.560;2023-07-13T01:58:45;25.80;39.00
20091;DHT22;10205;49.678;6.560;2023-07-13T02:01:12;25.70;38.90
20091;DHT22;10205;49.678;6.560;2023-07-13T02:03:39;25.70;38.90
20091;DHT22;10205;49.678;6.560;2023-07-13T02:06:06;25.60;38.90
20091;DHT22;10205;49.678;6.560;2023-07-13T02:08:34;25.60;38.90
20091;DHT22;10205;49.678;6.560;2023-07-13T02:11:03;25.60;39.00
20091;DHT22;10205;49.678;6.560;2023-07-13T02:13:32;25.60;39.10
20091;DHT22;10205;49.678;6.560;2023-07-13T02:15:59;25.60;39.20
20091;DHT22;10205;49.678;6.560;2023-07-13T02:18:26;25.50;39.10
20091;DHT22;10205;49.678;6.560;2023-07-13T02:20:54;25.50;39.10
20091;DHT22;10205;49.678;6.560;2023-07-13T02:23:21;25.50;39.20
20091;DHT22;10205;49.678;6.560;2023-07-13T02:25:48;25.50;39.20
20091;DHT22;10205;49.678;6.560;2023-07-13T02:28:16;25.40;39.20
20091;DHT22;10205;49.678;6.560;2023-07-13T02:30:44;25.40;39.30
20091;DHT22;10205;49.678;6.560;2023-07-13T02:33:12;25.40;39.30
20091;DHT22;10205;49.678;6.560;2023-07-13T02:35:39;25.40;39.30
20091;DHT22;10205;49.678;6.560;2023-07-13T02:38:06;25.30;39.40
20091;DHT22;10205;49.678;6.560;2023-07-13T02:40:34;25.30;39.40
20091;DHT22;10205;49.678;6.560;2023-07-13T02:43:02;25.30;39.40
20091;DHT22;10205;49.678;6.560;2023-07-13T02:45:30;25.30;39.50
20091;DHT22;10205;49.678;6.560;2023-07-13T02:47:58;25.20;39.40
20091;DHT22;10205;49.678;6.560;2023-07-13T02:50:26;25.20;39.60
20091;DHT22;10205;49.678;6.560;2023-07-13T02:52:53;25.20;39.50
20091;DHT22;10205;49.678;6.560;2023-07-13T02:55:20;25.20;39.60
20091;DHT22;10205;49.678;6.560;2023-07-13T02:57:47;25.20;39.60
20091;DHT22;10205;49.678;6.560;2023-07-13T03:00:15;25.10;39.60
20091;DHT22;10205;49.678;6.560;2023-07-13T03:02:43;25.10;39.70
20091;DHT22;10205;49.678;6.560;2023-07-13T03:05:12;25.10;39.70
20091;DHT22;10205;49.678;6.560;2023-07-13T03:07:40;25.10;39.80
20091;DHT22;10205;49.678;6.560;2023-07-13T03:10:08;25.00;39.70
20091;DHT22;10205;49.678;6.560;2023-07-13T03:12:36;25.00;39.80
20091;DHT22;10205;49.678;6.560;2023-07-13T03:15:04;25.00;39.80
20091;DHT22;10205;49.678;6.560;2023-07-13T03:17:32;25.00;39.90
20091;DHT22;10205;49.678;6.560;2023-07-13T03:20:12;25.00;39.90
20091;DHT22;10205;49.678;6.560;2023-07-13T03:22:39;24.90;40.10
20091;DHT22;10205;49.678;6.560;2023-07-13T03:25:08;24.90;40.00
20091;DHT22;10205;49.678;6.560;2023-07-13T03:27:36;24.90;40.10
20091;DHT22;10205;49.678;6.560;2023-07-13T03:30:04;24.90;40.10
20091;DHT22;10205;49.678;6.560;2023-07-13T03:32:33;24.80;40.10
20091;DHT22;10205;49.678;6.560;2023-07-13T03:35:00;24.80;40.20
20091;DHT22;10205;49.678;6.560;2023-07-13T03:37:29;24.80;40.30
20091;DHT22;10205;49.678;6.560;2023-07-13T03:39:56;24.80;40.30
20091;DHT22;10205;49.678;6.560;2023-07-13T03:42:24;24.80;40.30
20091;DHT22;10205;49.678;6.560;2023-07-13T03:44:51;24.70;40.30
20091;DHT22;10205;49.678;6.560;2023-07-13T03:47:18;24.70;40.40
20091;DHT22;10205;49.678;6.560;2023-07-13T03:49:46;24.70;40.50
20091;DHT22;10205;49.678;6.560;2023-07-13T03:52:13;24.60;40.50
20091;DHT22;10205;49.678;6.560;2023-07-13T03:54:41;24.60;40.70
20091;DHT22;10205;49.678;6.560;2023-07-13T03:57:09;24.60;40.70
20091;DHT22;10205;49.678;6.560;2023-07-13T03:59:36;24.60;40.60
20091;DHT22;10205;49.678;6.560;2023-07-13T04:02:04;24.50;40.70
20091;DHT22;10205;49.678;6.560;2023-07-13T04:04:31;24.50;40.80
20091;DHT22;10205;49.678;6.560;2023-07-13T04:06:58;24.50;40.70
20091;DHT22;10205;49.678;6.560;2023-07-13T04:09:25;24.40;40.80
20091;DHT22;10205;49.678;6.560;2023-07-13T04:11:54;24.40;40.90
20091;DHT22;10205;49.678;6.560;2023-07-13T04:14:21;24.40;41.00
20091;DHT22;10205;49.678;6.560;2023-07-13T04:16:49;24.30;41.00
20091;DHT22;10205;49.678;6.560;2023-07-13T04:19:16;24.40;41.00
20091;DHT22;10205;49.678;6.560;2023-07-13T04:21:43;24.30;41.00
20091;DHT22;10205;49.678;6.560;2023-07-13T04:24:11;24.30;41.00
20091;DHT22;10205;49.678;6.560;2023-07-13T04:26:38;24.30;41.00
20091;DHT22;10205;49.678;6.560;2023-07-13T04:29:07;24.20;41.20
20091;DHT22;10205;49.678;6.560;2023-07-13T04:31:34;24.20;41.20
20091;DHT22;10205;49.678;6.560;2023-07-13T04:34:01;24.20;41.20
20091;DHT22;10205;49.678;6.560;2023-07-13T04:36:29;24.20;41.20
20091;DHT22;10205;49.678;6.560;2023-07-13T04:38:57;24.20;41.30
20091;DHT22;10205;49.678;6.560;2023-07-13T04:41:24;24.10;41.30
20091;DHT22;10205;49.678;6.560;2023-07-13T04:43:51;24.10;41.40
20091;DHT22;10205;49.678;6.560;2023-07-13T04:46:20;24.10;41.40
20091;DHT22;10205;49.678;6.560;2023-07-13T04:48:49;24.10;41.60
20091;DHT22;10205;49.678;6.560;2023-07-13T04:51:18;24.00;41.50
20091;DHT22;10205;49.678;6.560;2023-07-13T04:53:46;24.00;41.60
20091;DHT22;10205;49.678;6.560;2023-07-13T04:56:13;24.00;41.60
20091;DHT22;10205;49.678;6.560;2023-07-13T04:58:40;24.00;41.50
20091;DHT22;10205;49.678;6.560;2023-07-13T05:01:09;23.90;41.70
20091;DHT22;10205;49.678;6.560;2023-07-13T05:03:38;23.90;41.80
20091;DHT22;10205;49.678;6.560;2023-07-13T05:06:07;23.90;41.80
20091;DHT22;10205;49.678;6.560;2023-07-13T05:08:36;23.90;41.90
20091;DHT22;10205;49.678;6.560;2023-07-13T05:11:04;23.90;41.90
20091;DHT22;10205;49.678;6.560;2023-07-13T05:13:33;23.80;41.90
20091;DHT22;10205;49.678;6.560;2023-07-13T05:16:02;23.80;41.90
20091;DHT22;10205;49.678;6.560;2023-07-13T05:18:31;23.80;41.90
20091;DHT22;10205;49.678;6.560;2023-07-13T05:21:01;23.80;41.90
20091;DHT22;10205;49.678;6.560;2023-07-13T05:23:31;23.80;42.00
20091;DHT22;10205;49.678;6.560;2023-07-13T05:25:59;23.80;42.00
20091;DHT22;10205;49.678;6.560;2023-07-13T05:28:27;23.80;42.00
20091;DHT22;10205;49.678;6.560;2023-07-13T05:30:55;23.80;42.20
20091;DHT22;10205;49.678;6.560;2023-07-13T05:33:23;23.70;42.10
20091;DHT22;10205;49.678;6.560;2023-07-13T05:35:51;23.70;42.10
20091;DHT22;10205;49.678;6.560;2023-07-13T05:38:20;23.70;42.10
20091;DHT22;10205;49.678;6.560;2023-07-13T05:40:49;23.70;42.30
20091;DHT22;10205;49.678;6.560;2023-07-13T05:43:17;23.70;42.20
20091;DHT22;10205;49.678;6.560;2023-07-13T05:45:45;23.70;42.20
20091;DHT22;10205;49.678;6.560;2023-07-13T05:48:12;23.70;42.20
20091;DHT22;10205;49.678;6.560;2023-07-13T05:50:39;23.70;42.20
20091;DHT22;10205;49.678;6.560;2023-07-13T05:53:07;23.70;42.20
20091;DHT22;10205;49.678;6.560;2023-07-13T05:55:36;23.70;42.20
20091;DHT22;10205;49.678;6.560;2023-07-13T05:58:08;23.60;42.30
20091;DHT22;10205;49.678;6.560;2023-07-13T06:00:35;23.70;42.30
20091;DHT22;10205;49.678;6.560;2023-07-13T06:03:02;23.70;42.30
20091;DHT22;10205;49.678;6.560;2023-07-13T06:05:30;23.70;43.00
20091;DHT22;10205;49.678;6.560;2023-07-13T06:07:59;23.70;42.40
20091;DHT22;10205;49.678;6.560;2023-07-13T06:10:26;23.70;42.40
20091;DHT22;10205;49.678;6.560;2023-07-13T06:12:55;23.70;42.50
20091;DHT22;10205;49.678;6.560;2023-07-13T06:15:22;23.60;42.40
20091;DHT22;10205;49.678;6.560;2023-07-13T06:17:49;23.70;42.50
20091;DHT22;10205;49.678;6.560;2023-07-13T06:20:17;23.70;42.60
20091;DHT22;10205;49.678;6.560;2023-07-13T06:22:44;23.70;42.50
20091;DHT22;10205;49.678;6.560;2023-07-13T06:25:11;23.70;42.50
20091;DHT22;10205;49.678;6.560;2023-07-13T06:27:38;23.70;42.50
20091;DHT22;10205;49.678;6.560;2023-07-13T06:30:08;23.80;42.60
20091;DHT22;10205;49.678;6.560;2023-07-13T06:32:36;23.80;42.80
20091;DHT22;10205;49.678;6.560;2023-07-13T06:35:05;23.80;42.80
20091;DHT22;10205;49.678;6.560;2023-07-13T06:37:32;23.80;42.70
20091;DHT22;10205;49.678;6.560;2023-07-13T06:40:00;23.80;42.70
20091;DHT22;10205;49.678;6.560;2023-07-13T06:42:27;23.80;42.70
20091;DHT22;10205;49.678;6.560;2023-07-13T06:44:54;23.90;42.70
20091;DHT22;10205;49.678;6.560;2023-07-13T06:47:23;23.90;42.80
20091;DHT22;10205;49.678;6.560;2023-07-13T06:49:50;23.90;42.80
20091;DHT22;10205;49.678;6.560;2023-07-13T06:52:17;24.00;42.70
20091;DHT22;10205;49.678;6.560;2023-07-13T06:54:45;24.00;42.70
20091;DHT22;10205;49.678;6.560;2023-07-13T06:57:12;24.00;42.60
20091;DHT22;10205;49.678;6.560;2023-07-13T06:59:39;24.00;42.70
20091;DHT22;10205;49.678;6.560;2023-07-13T07:02:09;24.10;42.70
20091;DHT22;10205;49.678;6.560;2023-07-13T07:04:38;24.10;42.70
20091;DHT22;10205;49.678;6.560;2023-07-13T07:07:05;24.20;42.70
20091;DHT22;10205;49.678;6.560;2023-07-13T07:09:33;24.20;42.60
20091;DHT22;10205;49.678;6.560;2023-07-13T07:12:01;24.20;42.60
20091;DHT22;10205;49.678;6.560;2023-07-13T07:14:29;24.20;42.50
20091;DHT22;10205;49.678;6.560;2023-07-13T07:16:57;24.30;42.60
20091;DHT22;10205;49.678;6.560;2023-07-13T07:19:24;24.40;42.50
20091;DHT22;10205;49.678;6.560;2023-07-13T07:21:56;24.40;43.10
20091;DHT22;10205;49.678;6.560;2023-07-13T07:24:23;24.40;42.40
20091;DHT22;10205;49.678;6.560;2023-07-13T07:26:51;24.50;42.30
20091;DHT22;10205;49.678;6.560;2023-07-13T07:29:18;24.50;42.40
20091;DHT22;10205;49.678;6.560;2023-07-13T07:31:45;24.60;42.40
20091;DHT22;10205;49.678;6.560;2023-07-13T07:34:12;24.60;42.40
20091;DHT22;10205;49.678;6.560;2023-07-13T07:36:40;24.60;43.10
20091;DHT22;10205;49.678;6.560;2023-07-13T07:39:08;24.70;42.40
20091;DHT22;10205;49.678;6.560;2023-07-13T07:41:35;24.70;42.40
20091;DHT22;10205;49.678;6.560;2023-07-13T07:44:03;24.80;42.30
20091;DHT22;10205;49.678;6.560;2023-07-13T07:46:33;24.80;42.30
20091;DHT22;10205;49.678;6.560;2023-07-13T07:49:00;24.90;42.30
20091;DHT22;10205;49.678;6.560;2023-07-13T07:51:27;25.00;42.10
20091;DHT22;10205;49.678;6.560;2023-07-13T07:53:54;25.00;42.10
20091;DHT22;10205;49.678;6.560;2023-07-13T07:56:23;25.10;42.10
20091;DHT22;10205;49.678;6.560;2023-07-13T07:58:50;25.10;42.00
20091;DHT22;10205;49.678;6.560;2023-07-13T08:01:17;25.20;42.10
20091;DHT22;10205;49.678;6.560;2023-07-13T08:03:45;25.30;42.00
20091;DHT22;10205;49.678;6.560;2023-07-13T08:06:12;25.30;41.70
20091;DHT22;10205;49.678;6.560;2023-07-13T08:08:40;25.40;42.50
20091;DHT22;10205;49.678;6.560;2023-07-13T08:11:09;25.50;41.70
20091;DHT22;10205;49.678;6.560;2023-07-13T08:13:38;25.60;41.70
20091;DHT22;10205;49.678;6.560;2023-07-13T08:16:06;25.60;41.70
20091;DHT22;10205;49.678;6.560;2023-07-13T08:18:33;25.70;41.00
20091;DHT22;10205;49.678;6.560;2023-07-13T08:21:03;25.80;40.80
20091;DHT22;10205;49.678;6.560;2023-07-13T08:23:31;25.80;40.40
20091;DHT22;10205;49.678;6.560;2023-07-13T08:25:58;25.90;40.90
20091;DHT22;10205;49.678;6.560;2023-07-13T08:28:27;25.90;40.70
20091;DHT22;10205;49.678;6.560;2023-07-13T08:31:00;25.90;41.00
20091;DHT22;10205;49.678;6.560;2023-07-13T08:33:28;26.00;40.80
20091;DHT22;10205;49.678;6.560;2023-07-13T08:35:55;26.10;40.90
20091;DHT22;10205;49.678;6.560;2023-07-13T08:38:23;26.10;40.60
20091;DHT22;10205;49.678;6.560;2023-07-13T08:40:52;26.20;40.20
20091;DHT22;10205;49.678;6.560;2023-07-13T08:43:26;26.30;40.60
20091;DHT22;10205;49.678;6.560;2023-07-13T08:46:02;26.30;40.40
20091;DHT22;10205;49.678;6.560;2023-07-13T08:48:41;26.40;40.50
20091;DHT22;10205;49.678;6.560;2023-07-13T08:51:24;26.50;40.60
20091;DHT22;10205;49.678;6.560;2023-07-13T08:54:00;26.50;40.40
20091;DHT22;10205;49.678;6.560;2023-07-13T08:56:30;26.60;40.00
20091;DHT22;10205;49.678;6.560;2023-07-13T08:59:02;26.70;40.10
20091;DHT22;10205;49.678;6.560;2023-07-13T09:01:52;26.70;40.00
20091;DHT22;10205;49.678;6.560;2023-07-13T09:04:31;26.80;39.60
20091;DHT22;10205;49.678;6.560;2023-07-13T09:07:06;26.90;39.40
20091;DHT22;10205;49.678;6.560;2023-07-13T09:09:54;27.00;39.50
20091;DHT22;10205;49.678;6.560;2023-07-13T09:12:37;27.00;39.30
20091;DHT22;10205;49.678;6.560;2023-07-13T09:15:23;27.10;38.80
20091;DHT22;10205;49.678;6.560;2023-07-13T09:18:02;27.20;39.00
20091;DHT22;10205;49.678;6.560;2023-07-13T09:20:33;27.30;39.10
20091;DHT22;10205;49.678;6.560;2023-07-13T09:23:07;27.40;38.00
20091;DHT22;10205;49.678;6.560;2023-07-13T09:25:45;27.40;38.40
20091;DHT22;10205;49.678;6.560;2023-07-13T09:28:19;27.50;38.60
20091;DHT22;10205;49.678;6.560;2023-07-13T09:30:52;27.50;37.80
20091;DHT22;10205;49.678;6.560;2023-07-13T09:33:26;27.60;38.10
20091;DHT22;10205;49.678;6.560;2023-07-13T09:35:55;27.70;38.40
20091;DHT22;10205;49.678;6.560;2023-07-13T09:38:24;27.70;38.50
20091;DHT22;10205;49.678;6.560;2023-07-13T09:41:10;27.70;38.20
20091;DHT22;10205;49.678;6.560;2023-07-13T09:44:08;27.80;38.40
20091;DHT22;10205;49.678;6.560;2023-07-13T09:46:38;27.90;37.90
20091;DHT22;10205;49.678;6.560;2023-07-13T09:49:10;28.00;38.00
20091;DHT22;10205;49.678;6.560;2023-07-13T09:51:38;28.10;37.20
20091;DHT22;10205;49.678;6.560;2023-07-13T09:54:18;28.10;37.30
20091;DHT22;10205;49.678;6.560;2023-07-13T09:56:54;28.20;37.70
20091;DHT22;10205;49.678;6.560;2023-07-13T09:59:23;28.30;37.30
20091;DHT22;10205;49.678;6.560;2023-07-13T10:01:54;28.40;37.50
20091;DHT22;10205;49.678;6.560;2023-07-13T10:04:28;28.50;37.50
20091;DHT22;10205;49.678;6.560;2023-07-13T10:07:06;28.50;37.60
20091;DHT22;10205;49.678;6.560;2023-07-13T10:09:34;28.60;37.40
20091;DHT22;10205;49.678;6.560;2023-07-13T10:12:01;28.70;37.40
20091;DHT22;10205;49.678;6.560;2023-07-13T10:14:29;28.80;35.90
20091;DHT22;10205;49.678;6.560;2023-07-13T10:16:59;28.80;36.60
20091;DHT22;10205;49.678;6.560;2023-07-13T10:19:32;28.90;36.10
20091;DHT22;10205;49.678;6.560;2023-07-13T10:22:12;28.90;35.40
20091;DHT22;10205;49.678;6.560;2023-07-13T10:24:54;28.90;35.90
20091;DHT22;10205;49.678;6.560;2023-07-13T10:27:28;28.90;35.80
20091;DHT22;10205;49.678;6.560;2023-07-13T10:30:04;29.00;36.20
20091;DHT22;10205;49.678;6.560;2023-07-13T10:32:38;29.00;35.90
20091;DHT22;10205;49.678;6.560;2023-07-13T10:35:10;29.10;36.20
20091;DHT22;10205;49.678;6.560;2023-07-13T10:37:43;29.20;36.00
20091;DHT22;10205;49.678;6.560;2023-07-13T10:40:18;29.30;35.90
20091;DHT22;10205;49.678;6.560;2023-07-13T10:42:51;29.30;35.50
20091;DHT22;10205;49.678;6.560;2023-07-13T10:45:24;29.40;35.90
20091;DHT22;10205;49.678;6.560;2023-07-13T10:47:54;29.50;35.80
20091;DHT22;10205;49.678;6.560;2023-07-13T10:50:28;29.50;35.10
20091;DHT22;10205;49.678;6.560;2023-07-13T10:53:02;29.60;34.80
20091;DHT22;10205;49.678;6.560;2023-07-13T10:55:31;29.60;35.20
20091;DHT22;10205;49.678;6.560;2023-07-13T10:58:02;29.70;35.10
20091;DHT22;10205;49.678;6.560;2023-07-13T11:00:46;29.80;34.90
20091;DHT22;10205;49.678;6.560;2023-07-13T11:03:18;29.80;34.30
20091;DHT22;10205;49.678;6.560;2023-07-13T11:05:51;29.90;34.50
20091;DHT22;10205;49.678;6.560;2023-07-13T11:08:36;29.90;34.60
20091;DHT22;10205;49.678;6.560;2023-07-13T11:11:33;30.00;34.50
20091;DHT22;10205;49.678;6.560;2023-07-13T11:14:05;30.10;34.70
20091;DHT22;10205;49.678;6.560;2023-07-13T11:16:54;30.10;34.30
20091;DHT22;10205;49.678;6.560;2023-07-13T11:22:24;30.20;33.10
20091;DHT22;10205;49.678;6.560;2023-07-13T11:25:25;30.30;33.30
20091;DHT22;10205;49.678;6.560;2023-07-13T11:28:14;30.30;33.20
20091;DHT22;10205;49.678;6.560;2023-07-13T11:30:47;30.30;33.30
20091;DHT22;10205;49.678;6.560;2023-07-13T11:33:18;30.30;33.40
20091;DHT22;10205;49.678;6.560;2023-07-13T11:35:57;30.40;33.70
20091;DHT22;10205;49.678;6.560;2023-07-13T11:38:33;30.40;33.10
20091;DHT22;10205;49.678;6.560;2023-07-13T11:41:06;30.40;32.80
20091;DHT22;10205;49.678;6.560;2023-07-13T11:43:40;30.50;33.30
20091;DHT22;10205;49.678;6.560;2023-07-13T11:46:15;30.50;33.30
20091;DHT22;10205;49.678;6.560;2023-07-13T11:48:47;30.50;33.10
20091;DHT22;10205;49.678;6.560;2023-07-13T11:51:20;30.60;33.50
20091;DHT22;10205;49.678;6.560;2023-07-13T11:53:53;30.60;33.10
20091;DHT22;10205;49.678;6.560;2023-07-13T11:56:22;30.70;33.20
20091;DHT22;10205;49.678;6.560;2023-07-13T11:58:52;30.70;33.20
20091;DHT22;10205;49.678;6.560;2023-07-13T12:01:25;30.70;32.80
20091;DHT22;10205;49.678;6.560;2023-07-13T12:03:57;30.70;32.80
20091;DHT22;10205;49.678;6.560;2023-07-13T12:06:28;30.80;32.70
20091;DHT22;10205;49.678;6.560;2023-07-13T12:08:59;30.70;32.80
20091;DHT22;10205;49.678;6.560;2023-07-13T12:11:29;30.80;32.60
20091;DHT22;10205;49.678;6.560;2023-07-13T12:13:59;30.80;32.90
20091;DHT22;10205;49.678;6.560;2023-07-13T12:16:29;30.80;32.80
20091;DHT22;10205;49.678;6.560;2023-07-13T12:19:00;30.80;32.80
20091;DHT22;10205;49.678;6.560;2023-07-13T12:21:31;30.80;31.80
20091;DHT22;10205;49.678;6.560;2023-07-13T12:24:03;30.80;32.60
20091;DHT22;10205;49.678;6.560;2023-07-13T12:26:31;30.80;32.60
20091;DHT22;10205;49.678;6.560;2023-07-13T12:29:00;30.90;32.40
20091;DHT22;10205;49.678;6.560;2023-07-13T12:31:35;30.90;32.50
20091;DHT22;10205;49.678;6.560;2023-07-13T12:34:09;30.90;32.40
20091;DHT22;10205;49.678;6.560;2023-07-13T12:36:40;30.90;32.50
20091;DHT22;10205;49.678;6.560;2023-07-13T12:39:16;30.90;32.60
20091;DHT22;10205;49.678;6.560;2023-07-13T12:41:47;31.00;32.60
20091;DHT22;10205;49.678;6.560;2023-07-13T12:44:17;31.00;32.10
20091;DHT22;10205;49.678;6.560;2023-07-13T12:46:58;31.00;31.90
20091;DHT22;10205;49.678;6.560;2023-07-13T12:49:32;31.00;31.30
20091;DHT22;10205;49.678;6.560;2023-07-13T12:52:03;31.00;31.70
20091;DHT22;10205;49.678;6.560;2023-07-13T12:54:39;31.00;32.70
20091;DHT22;10205;49.678;6.560;2023-07-13T12:57:14;31.00;31.50
20091;DHT22;10205;49.678;6.560;2023-07-13T12:59:44;31.00;32.10
20091;DHT22;10205;49.678;6.560;2023-07-13T13:02:29;31.00;31.90
20091;DHT22;10205;49.678;6.560;2023-07-13T13:05:00;31.00;31.80
20091;DHT22;10205;49.678;6.560;2023-07-13T13:07:30;31.00;31.60
20091;DHT22;10205;49.678;6.560;2023-07-13T13:09:59;31.10;32.00
20091;DHT22;10205;49.678;6.560;2023-07-13T13:12:27;31.10;31.60
20091;DHT22;10205;49.678;6.560;2023-07-13T13:14:54;31.00;31.40
20091;DHT22;10205;49.678;6.560;2023-07-13T13:17:29;31.10;31.70
20091;DHT22;10205;49.678;6.560;2023-07-13T13:19:58;31.00;31.90
20091;DHT22;10205;49.678;6.560;2023-07-13T13:22:25;31.00;31.80
20091;DHT22;10205;49.678;6.560;2023-07-13T13:24:53;31.00;31.40
20091;DHT22;10205;49.678;6.560;2023-07-13T13:27:22;31.00;31.60
20091;DHT22;10205;49.678;6.560;2023-07-13T13:29:50;31.00;31.10
20091;DHT22;10205;49.678;6.560;2023-07-13T13:32:18;31.00;31.60
20091;DHT22;10205;49.678;6.560;2023-07-13T13:34:46;31.00;30.80
20091;DHT22;10205;49.678;6.560;2023-07-13T13:37:18;31.10;31.30
20091;DHT22;10205;49.678;6.560;2023-07-13T13:39:48;31.10;31.10
20091;DHT22;10205;49.678;6.560;2023-07-13T13:42:16;31.00;31.40
20091;DHT22;10205;49.678;6.560;2023-07-13T13:44:46;31.00;31.20
20091;DHT22;10205;49.678;6.560;2023-07-13T13:47:25;31.00;31.60
20091;DHT22;10205;49.678;6.560;2023-07-13T13:49:57;31.00;31.60
20091;DHT22;10205;49.678;6.560;2023-07-13T13:52:26;31.00;31.80
20091;DHT22;10205;49.678;6.560;2023-07-13T13:54:53;31.00;31.10
20091;DHT22;10205;49.678;6.560;2023-07-13T13:57:22;31.00;31.50
20091;DHT22;10205;49.678;6.560;2023-07-13T13:59:52;31.00;31.60
20091;DHT22;10205;49.678;6.560;2023-07-13T14:02:24;31.00;31.80
20091;DHT22;10205;49.678;6.560;2023-07-13T14:04:56;31.00;31.70
20091;DHT22;10205;49.678;6.560;2023-07-13T14:07:25;31.00;31.80
20091;DHT22;10205;49.678;6.560;2023-07-13T14:09:54;31.10;31.40
20091;DHT22;10205;49.678;6.560;2023-07-13T14:12:23;31.10;31.30
20091;DHT22;10205;49.678;6.560;2023-07-13T14:14:53;31.10;31.40
20091;DHT22;10205;49.678;6.560;2023-07-13T14:17:22;31.10;31.30
20091;DHT22;10205;49.678;6.560;2023-07-13T14:19:52;31.10;31.20
20091;DHT22;10205;49.678;6.560;2023-07-13T14:22:23;31.10;31.50
20091;DHT22;10205;49.678;6.560;2023-07-13T14:24:52;31.10;31.20
20091;DHT22;10205;49.678;6.560;2023-07-13T14:27:20;31.10;31.00
20091;DHT22;10205;49.678;6.560;2023-07-13T14:29:48;31.10;31.10
20091;DHT22;10205;49.678;6.560;2023-07-13T14:32:17;31.10;31.40
20091;DHT22;10205;49.678;6.560;2023-07-13T14:34:44;31.10;31.20
20091;DHT22;10205;49.678;6.560;2023-07-13T14:37:13;31.10;31.50
20091;DHT22;10205;49.678;6.560;2023-07-13T14:39:43;31.10;31.30
20091;DHT22;10205;49.678;6.560;2023-07-13T14:42:13;31.10;31.00
20091;DHT22;10205;49.678;6.560;2023-07-13T14:44:40;31.10;31.00
20091;DHT22;10205;49.678;6.560;2023-07-13T14:47:08;31.10;31.10
20091;DHT22;10205;49.678;6.560;2023-07-13T14:49:40;31.00;31.20
20091;DHT22;10205;49.678;6.560;2023-07-13T14:52:13;31.00;31.20
20091;DHT22;10205;49.678;6.560;2023-07-13T14:54:43;31.00;31.30
20091;DHT22;10205;49.678;6.560;2023-07-13T14:57:12;31.10;31.70
20091;DHT22;10205;49.678;6.560;2023-07-13T14:59:40;31.20;31.90
20091;DHT22;10205;49.678;6.560;2023-07-13T15:02:15;31.20;31.90
20091;DHT22;10205;49.678;6.560;2023-07-13T15:04:46;31.30;31.90
20091;DHT22;10205;49.678;6.560;2023-07-13T15:07:13;31.40;31.60
20091;DHT22;10205;49.678;6.560;2023-07-13T15:09:42;31.50;31.50
20091;DHT22;10205;49.678;6.560;2023-07-13T15:12:09;31.60;31.70
20091;DHT22;10205;49.678;6.560;2023-07-13T15:14:37;31.60;30.80
20091;DHT22;10205;49.678;6.560;2023-07-13T15:17:05;31.80;30.70
20091;DHT22;10205;49.678;6.560;2023-07-13T15:19:41;31.80;30.40
20091;DHT22;10205;49.678;6.560;2023-07-13T15:22:10;31.90;30.10
20091;DHT22;10205;49.678;6.560;2023-07-13T15:24:37;31.90;30.10
20091;DHT22;10205;49.678;6.560;2023-07-13T15:27:09;32.00;30.10
20091;DHT22;10205;49.678;6.560;2023-07-13T15:29:38;32.00;30.10
20091;DHT22;10205;49.678;6.560;2023-07-13T15:32:12;32.10;29.70
20091;DHT22;10205;49.678;6.560;2023-07-13T15:34:40;32.10;29.40
20091;DHT22;10205;49.678;6.560;2023-07-13T15:37:13;32.20;30.10
20091;DHT22;10205;49.678;6.560;2023-07-13T15:39:42;32.20;29.80
20091;DHT22;10205;49.678;6.560;2023-07-13T15:42:14;32.20;30.00
20091;DHT22;10205;49.678;6.560;2023-07-13T15:44:42;32.30;29.40
20091;DHT22;10205;49.678;6.560;2023-07-13T15:47:11;32.40;30.10
20091;DHT22;10205;49.678;6.560;2023-07-13T15:49:40;32.40;30.00
20091;DHT22;10205;49.678;6.560;2023-07-13T15:52:16;32.40;30.00